カーブル の空港の天気 - METARとTAF

カーブル国際空港 ( OAKB / KBL ) - アフガニスタン カーブル
飛行場実況気象(Metar)
観測時間08/17 07:20 AFT (08/17 02:50 UTC)
風向・風速静穏 0m/s
視程9000m
天気現象
なし
気温22℃
湿度29%
気圧1014hPa
METAROAKB 170250Z 00000KT 9000 NSC 22/03 Q1014 RMK BLU BLU
過去の天気等 Google飛行場航空写真 Wunderground天気予報

過去48時間のMETAR

飛行場予報(TAF)
発表時間: 8/17 05:45 AFT (8/17 01:15 UTC)
予報対象時間: 17日5時 AFT ~ 18日4時 AFT
風向・風速不定 1m/s
視程10km以上
なし
17日12時 AFT ~ 17日14時 AFT に徐々に
風向・風速北 6m/s
少しの雲 雲底高度 3,050m
17日16時 AFT ~ 17日20時 AFT に一時的に
風向・風速北 8m/s 瞬間風速 13m/s
17日21時 AFT ~ 17日23時 AFT に徐々に
風向・風速不定 1m/s
TAF COR OAKB 170115Z 1701/1724 VRB02KT CAVOK
BECMG 1708/1710 36012KT FEW100
TEMPO 1712/1716 01015G25KT
BECMG 1717/1719 VRB02KT